createdAt,value
2023-02-06T00:02:54.968Z,46.03
2023-02-06T00:05:51.290Z,45.05
2023-02-06T00:11:27.997Z,47.53
2023-02-06T00:14:17.953Z,44.80
2023-02-06T00:17:02.174Z,49.58
2023-02-06T00:20:02.835Z,54.38
2023-02-06T00:23:04.168Z,47.33
2023-02-06T00:35:09.392Z,42.10
2023-02-06T00:41:23.086Z,36.92
2023-02-06T00:47:06.725Z,35.85
2023-02-06T00:50:01.119Z,33.38
2023-02-06T00:52:36.837Z,36.05
2023-02-06T00:55:29.120Z,35.90
2023-02-06T00:58:03.601Z,40.80
2023-02-06T01:00:51.477Z,41.90
2023-02-06T01:03:35.884Z,38.40
2023-02-06T01:09:30.569Z,37.55
2023-02-06T01:12:11.717Z,37.53
2023-02-06T01:14:49.288Z,37.90
2023-02-06T01:17:26.745Z,39.97
2023-02-06T01:20:20.118Z,41.58
2023-02-06T01:23:11.944Z,42.60
2023-02-06T01:29:22.796Z,42.72
2023-02-06T01:32:05.324Z,40.58
2023-02-06T01:38:31.983Z,37.30
2023-02-06T01:41:29.891Z,34.85
2023-02-06T01:44:17.570Z,41.90
2023-02-06T01:47:07.800Z,38.00
2023-02-06T01:50:01.049Z,43.95
2023-02-06T01:52:39.200Z,41.50
2023-02-06T01:55:45.609Z,40.33
2023-02-06T02:01:56.538Z,37.90
2023-02-06T02:04:34.243Z,39.25
2023-02-06T02:07:17.762Z,45.22
2023-02-06T02:09:56.403Z,38.25
2023-02-06T02:12:34.858Z,32.70
2023-02-06T02:15:16.982Z,43.78
2023-02-06T02:18:06.256Z,42.47
2023-02-06T02:21:04.441Z,44.53
2023-02-06T02:24:00.372Z,46.13
2023-02-06T02:27:23.984Z,47.47
2023-02-06T02:33:46.690Z,56.10
2023-02-06T02:36:59.092Z,54.17
2023-02-06T02:42:53.680Z,53.03
2023-02-06T02:48:42.151Z,48.05
2023-02-06T02:51:25.609Z,48.05
2023-02-06T02:54:06.046Z,55.55
2023-02-06T02:56:41.704Z,58.30
2023-02-06T03:02:25.616Z,45.78
2023-02-06T03:05:01.316Z,45.08
2023-02-06T03:07:56.484Z,48.17
2023-02-06T03:10:36.874Z,51.03
2023-02-06T03:13:28.392Z,52.67
2023-02-06T03:16:26.968Z,59.65
2023-02-06T03:19:06.498Z,50.47
2023-02-06T03:21:41.764Z,53.20
2023-02-06T03:24:23.369Z,64.33
2023-02-06T03:27:04.520Z,60.70
2023-02-06T03:29:39.929Z,60.70
2023-02-06T03:32:37.270Z,64.45
2023-02-06T03:35:19.223Z,63.63
2023-02-06T03:37:53.128Z,53.47
2023-02-06T03:40:32.272Z,48.55
2023-02-06T03:43:09.033Z,48.88
2023-02-06T03:45:49.475Z,57.40
2023-02-06T03:48:56.850Z,58.60
2023-02-06T03:51:52.445Z,66.60
2023-02-06T03:54:53.918Z,53.08
2023-02-06T03:57:32.952Z,62.13
2023-02-06T04:00:15.167Z,61.95
2023-02-06T04:02:51.692Z,55.17
2023-02-06T04:05:30.788Z,78.45
2023-02-06T04:08:12.535Z,66.88
2023-02-06T04:10:55.844Z,55.20
2023-02-06T04:13:38.527Z,58.58
2023-02-06T04:16:25.084Z,59.85
2023-02-06T04:19:01.159Z,55.05
2023-02-06T04:24:26.640Z,54.57
2023-02-06T04:27:05.176Z,46.40
2023-02-06T04:29:59.702Z,50.13
2023-02-06T04:32:59.813Z,52.80
2023-02-06T04:36:00.994Z,41.25
2023-02-06T04:38:57.465Z,45.28
2023-02-06T04:42:22.123Z,42.45
2023-02-06T04:45:20.435Z,48.90
2023-02-06T04:48:08.861Z,48.78
2023-02-06T04:50:48.634Z,44.15
2023-02-06T04:53:33.765Z,56.17
2023-02-06T04:56:21.576Z,52.60
2023-02-06T04:59:12.900Z,53.33
2023-02-06T05:04:57.845Z,43.17
2023-02-06T05:07:43.361Z,38.03
2023-02-06T05:10:31.340Z,47.50
2023-02-06T05:13:10.443Z,47.58
2023-02-06T05:15:47.324Z,50.55
2023-02-06T05:18:33.061Z,48.00
2023-02-06T05:21:22.406Z,58.50
2023-02-06T05:24:22.091Z,62.17
2023-02-06T05:27:03.829Z,64.20
2023-02-06T05:29:39.896Z,66.88
2023-02-06T05:35:27.485Z,54.00
2023-02-06T05:38:05.387Z,73.95
2023-02-06T05:40:40.157Z,65.15
2023-02-06T05:43:22.583Z,73.72
2023-02-06T05:46:01.871Z,57.83
2023-02-06T05:48:38.779Z,50.10
2023-02-06T05:51:17.144Z,51.95
2023-02-06T05:54:01.701Z,46.35
2023-02-06T05:56:41.161Z,46.03
2023-02-06T05:59:19.902Z,47.67
2023-02-06T06:01:55.632Z,47.13
2023-02-06T06:04:38.823Z,52.25
2023-02-06T06:07:20.881Z,48.78
2023-02-06T06:09:58.118Z,46.15
2023-02-06T06:12:54.364Z,46.00
2023-02-06T06:15:57.335Z,43.38
2023-02-06T06:18:33.216Z,47.75
2023-02-06T06:21:08.961Z,43.50
2023-02-06T06:23:54.518Z,44.47
2023-02-06T06:26:32.707Z,50.88
2023-02-06T06:29:07.850Z,57.78
2023-02-06T06:31:44.885Z,48.25
2023-02-06T06:34:20.863Z,50.90
2023-02-06T06:36:59.799Z,107.38
2023-02-06T06:48:15.370Z,45.78
2023-02-06T06:57:01.724Z,49.08
2023-02-06T06:59:45.295Z,48.63
2023-02-06T07:02:22.862Z,47.17
2023-02-06T07:05:06.519Z,51.85
2023-02-06T07:07:42.817Z,50.45
2023-02-06T07:10:19.705Z,49.15
2023-02-06T07:13:03.899Z,63.75
2023-02-06T07:15:44.362Z,60.33
2023-02-06T07:18:23.066Z,61.97
2023-02-06T07:21:03.926Z,76.32
2023-02-06T07:23:41.615Z,70.28
2023-02-06T07:26:20.341Z,85.30
2023-02-06T07:28:58.656Z,76.40
2023-02-06T07:50:10.165Z,45.78
2023-02-06T07:52:56.341Z,120.95
2023-02-06T07:55:33.276Z,110.00
2023-02-06T08:01:01.064Z,51.15
2023-02-06T08:06:38.769Z,41.47
2023-02-06T08:27:46.697Z,41.07
2023-02-06T08:30:24.997Z,37.60
2023-02-06T08:33:04.049Z,45.20
2023-02-06T08:38:50.002Z,40.38
2023-02-06T08:41:37.124Z,39.30
2023-02-06T08:44:24.434Z,42.67
2023-02-06T08:47:20.252Z,39.27
2023-02-06T09:17:22.334Z,31.77
2023-02-06T09:26:16.614Z,32.80
2023-02-06T09:31:48.234Z,33.03
2023-02-06T09:34:43.584Z,31.73
2023-02-06T09:37:20.776Z,31.50
2023-02-06T09:42:59.015Z,30.93
2023-02-06T09:45:40.660Z,31.05
2023-02-06T09:48:21.266Z,28.38
2023-02-06T09:54:08.043Z,28.00
2023-02-06T09:56:45.838Z,26.27
2023-02-06T09:59:36.593Z,26.67
2023-02-06T10:02:30.084Z,25.55
2023-02-06T10:05:14.048Z,26.47
2023-02-06T10:08:03.492Z,24.67
2023-02-06T10:10:48.029Z,22.58
2023-02-06T10:13:27.886Z,22.67
2023-02-06T10:16:11.705Z,20.85
2023-02-06T10:18:50.995Z,19.40
2023-02-06T10:21:31.812Z,17.13
2023-02-06T10:24:14.332Z,14.50
2023-02-06T10:26:48.133Z,13.13
2023-02-06T10:29:42.699Z,13.65
2023-02-06T10:35:17.591Z,11.95
2023-02-06T10:38:37.039Z,11.13
2023-02-06T10:41:24.643Z,11.60
2023-02-06T10:44:06.857Z,13.88
2023-02-06T10:46:54.562Z,10.60
2023-02-06T10:49:37.524Z,8.13
2023-02-06T10:52:26.757Z,7.93
2023-02-06T10:55:10.483Z,7.97
2023-02-06T11:00:53.307Z,8.80
2023-02-06T11:06:40.326Z,10.55
2023-02-06T11:16:05.436Z,10.65
2023-02-06T11:31:48.514Z,11.13
2023-02-06T11:35:04.612Z,9.40
2023-02-06T11:43:49.051Z,7.65
2023-02-06T12:49:29.088Z,13.05
2023-02-06T13:04:55.929Z,9.43
2023-02-06T13:13:15.729Z,8.43
2023-02-06T13:38:26.198Z,6.95
2023-02-06T13:58:33.568Z,7.78
2023-02-06T14:01:37.148Z,7.50
2023-02-06T14:07:54.919Z,9.35
2023-02-06T14:14:06.721Z,11.70
2023-02-06T14:16:53.142Z,18.90
2023-02-06T14:28:59.242Z,12.93
2023-02-06T14:31:49.517Z,10.35
2023-02-06T14:37:30.184Z,17.45
2023-02-06T14:40:31.275Z,25.60
2023-02-06T14:43:19.934Z,20.25
2023-02-06T14:49:00.184Z,16.93
2023-02-06T14:51:44.389Z,11.95
2023-02-06T14:54:38.895Z,11.00
2023-02-06T15:03:44.501Z,12.60
2023-02-06T15:06:18.287Z,12.23
2023-02-06T15:09:04.475Z,11.25
2023-02-06T15:11:49.635Z,12.52
2023-02-06T15:14:36.457Z,10.77
2023-02-06T15:17:52.685Z,11.53
2023-02-06T15:20:31.292Z,12.10
2023-02-06T15:23:16.861Z,14.00
2023-02-06T15:26:09.498Z,10.50
2023-02-06T15:28:47.270Z,13.45
2023-02-06T15:31:44.660Z,11.52
2023-02-06T15:34:40.571Z,10.18
2023-02-06T15:46:16.044Z,12.90
2023-02-06T15:49:03.343Z,12.30
2023-02-06T15:55:02.407Z,12.00
2023-02-06T15:57:43.456Z,12.10
2023-02-06T16:03:42.916Z,13.63
2023-02-06T16:06:29.087Z,13.80
2023-02-06T16:09:25.423Z,17.58
2023-02-06T16:12:17.244Z,66.85
2023-02-06T16:15:02.502Z,67.22
2023-02-06T16:17:49.571Z,36.97
2023-02-06T16:20:37.580Z,32.20
2023-02-06T16:26:31.191Z,24.90
2023-02-06T16:29:46.492Z,22.10
2023-02-06T16:32:51.125Z,16.10
2023-02-06T16:35:31.038Z,17.27
2023-02-06T16:38:25.898Z,17.35
2023-02-06T16:41:11.452Z,16.17
2023-02-06T16:49:58.161Z,16.40
2023-02-06T16:52:56.710Z,22.10
2023-02-06T16:58:41.251Z,47.63
2023-02-06T17:05:03.430Z,22.15
2023-02-06T17:07:47.256Z,28.15
2023-02-06T17:10:38.441Z,49.90
2023-02-06T17:13:27.259Z,36.60
2023-02-06T17:16:20.033Z,45.22
2023-02-06T17:46:57.143Z,37.60
2023-02-06T17:55:53.050Z,28.95
2023-02-06T18:01:10.551Z,28.25
2023-02-06T18:03:49.345Z,29.70
2023-02-06T18:06:23.982Z,33.88
2023-02-06T18:09:14.129Z,30.30
2023-02-06T18:14:44.608Z,29.27
2023-02-06T18:17:33.484Z,32.08
2023-02-06T18:23:27.581Z,27.75
2023-02-06T18:29:21.766Z,33.80
2023-02-06T18:32:06.518Z,30.50
2023-02-06T18:34:42.285Z,32.60
2023-02-06T18:37:23.514Z,31.77
2023-02-06T18:40:01.325Z,28.47
2023-02-06T18:45:40.340Z,25.23
2023-02-06T18:54:10.717Z,32.60
2023-02-06T18:56:50.438Z,31.42
2023-02-06T18:59:28.112Z,53.10
2023-02-06T19:02:09.243Z,32.67
2023-02-06T19:04:48.163Z,33.50
2023-02-06T19:07:24.430Z,29.55
2023-02-06T19:10:02.534Z,35.00
2023-02-06T19:12:41.099Z,44.17
2023-02-06T19:15:19.892Z,34.03
2023-02-06T19:18:02.542Z,39.35
2023-02-06T19:20:40.547Z,39.25
2023-02-06T19:23:18.382Z,36.30
2023-02-06T19:25:56.060Z,39.55
2023-02-06T19:28:35.013Z,34.58
2023-02-06T19:31:16.246Z,40.05
2023-02-06T19:33:58.196Z,34.75
2023-02-06T19:36:33.522Z,38.97
2023-02-06T19:39:15.981Z,41.40
2023-02-06T19:41:54.944Z,38.43
2023-02-06T19:44:33.752Z,38.00
2023-02-06T19:47:14.095Z,44.13
2023-02-06T19:49:50.013Z,40.05
2023-02-06T19:52:32.769Z,35.40
2023-02-06T19:55:12.522Z,34.60
2023-02-06T19:57:52.119Z,39.03
2023-02-06T20:00:31.051Z,40.17
2023-02-06T20:03:10.300Z,45.08
2023-02-06T20:05:46.371Z,49.58
2023-02-06T20:08:25.166Z,55.90
2023-02-06T20:11:07.818Z,57.05
2023-02-06T20:13:58.481Z,54.75
2023-02-06T20:16:34.878Z,61.15
2023-02-06T20:19:20.000Z,59.05
2023-02-06T20:22:14.810Z,63.22
2023-02-06T20:24:56.248Z,59.55
2023-02-06T21:14:16.292Z,54.97
2023-02-06T22:54:37.804Z,60.20
2023-02-06T22:57:21.621Z,56.58
2023-02-06T23:06:09.463Z,59.72
